Time;durP1;ratioP1;P1;durP2;ratioP2;P2;SDS_P1;SDS_P2;PMS_P1;PMS_P2;Temp;Humidity;BMP_temperature;BMP_pressure;BME280_temperature;BME280_humidity;BME280_pressure;Samples;Min_cycle;Max_cycle;Signal;HPM_P1;HPM_P2
2023/10/09 00:01:44;;;;;;;14.87;13.87;;;14.40;99.90;;;;;;5132002;27;20213;-62
2023/10/09 00:04:13;;;;;;;14.17;13.57;;;14.40;99.90;;;;;;5131988;27;20316;-62
2023/10/09 00:06:42;;;;;;;13.33;12.73;;;14.40;99.90;;;;;;5132339;27;20549;-64
2023/10/09 00:09:30;;;;;;;13.87;13.17;;;14.40;99.90;;;;;;5131984;27;20300;-64
2023/10/09 00:11:57;;;;;;;13.13;12.53;;;14.40;99.90;;;;;;5131981;27;20743;-62
2023/10/09 00:14:25;;;;;;;13.30;12.70;;;14.40;99.90;;;;;;5131927;27;20232;-65
2023/10/09 00:17:05;;;;;;;13.90;13.10;;;14.40;99.90;;;;;;5131868;27;20212;-62
2023/10/09 00:19:32;;;;;;;13.50;12.90;;;14.50;99.90;;;;;;5131506;27;20229;-62
2023/10/09 00:22:04;;;;;;;13.47;12.77;;;14.50;99.90;;;;;;5131740;27;20209;-62
2023/10/09 00:24:33;;;;;;;13.70;13.07;;;14.40;99.90;;;;;;5131704;27;20779;-63
2023/10/09 00:27:11;;;;;;;13.83;13.20;;;14.50;99.90;;;;;;5131448;27;20201;-62
2023/10/09 00:29:44;;;;;;;14.30;13.50;;;14.40;99.90;;;;;;5132041;27;20219;-63
2023/10/09 00:32:15;;;;;;;13.53;12.90;;;14.40;99.90;;;;;;5131649;27;20209;-64
2023/10/09 00:34:42;;;;;;;13.53;12.93;;;14.40;99.90;;;;;;5131611;27;20565;-64
2023/10/09 00:37:13;;;;;;;13.65;13.05;;;14.30;99.90;;;;;;5131664;27;20706;-62
2023/10/09 00:39:43;;;;;;;13.90;13.20;;;14.30;99.90;;;;;;5131319;27;20320;-62
2023/10/09 00:42:14;;;;;;;13.80;13.20;;;14.30;99.90;;;;;;5131411;27;20205;-63
2023/10/09 00:44:42;;;;;;;14.03;13.20;;;14.30;99.90;;;;;;5131626;27;20229;-63
2023/10/09 00:47:22;;;;;;;13.43;12.77;;;14.20;99.90;;;;;;5132138;27;20205;-64
2023/10/09 00:49:59;;;;;;;13.97;13.27;;;14.20;99.90;;;;;;5131300;27;20244;-63
2023/10/09 00:52:39;;;;;;;13.80;13.10;;;14.20;99.90;;;;;;5128073;28;20282;-63
2023/10/09 00:55:13;;;;;;;14.13;13.43;;;14.20;99.90;;;;;;5131606;28;20228;-64
2023/10/09 00:57:42;;;;;;;13.67;12.97;;;14.20;99.90;;;;;;5132681;27;20678;-64
2023/10/09 01:00:29;;;;;;;14.03;13.27;;;14.10;99.90;;;;;;5136210;27;20231;-64
2023/10/09 01:03:10;;;;;;;13.30;12.60;;;14.10;99.90;;;;;;5137533;27;20319;-63
2023/10/09 01:05:38;;;;;;;13.20;12.70;;;14.10;99.90;;;;;;5139105;27;20257;-65
2023/10/09 01:08:24;;;;;;;13.63;12.93;;;14.10;99.90;;;;;;5137981;27;20230;-64
2023/10/09 01:10:55;;;;;;;13.93;13.23;;;14.10;99.90;;;;;;5136172;27;20247;-63
2023/10/09 01:13:27;;;;;;;13.40;12.80;;;14.10;99.90;;;;;;5136026;27;20229;-62
2023/10/09 01:15:57;;;;;;;13.98;13.20;;;14.00;99.90;;;;;;5136169;27;20215;-63
2023/10/09 01:18:35;;;;;;;14.10;13.50;;;14.00;99.90;;;;;;5135266;27;20256;-63
2023/10/09 01:21:02;;;;;;;14.00;13.30;;;14.00;99.90;;;;;;5135292;27;20303;-63
2023/10/09 01:23:31;;;;;;;13.93;13.30;;;13.90;99.90;;;;;;5135117;27;20236;-64
2023/10/09 01:25:58;;;;;;;13.68;13.00;;;13.90;99.90;;;;;;5126307;27;20202;-64
2023/10/09 01:28:26;;;;;;;14.40;13.60;;;14.00;99.90;;;;;;5114411;28;20273;-63
2023/10/09 01:30:55;;;;;;;13.73;13.13;;;13.90;99.90;;;;;;5115164;28;20214;-62
2023/10/09 01:33:24;;;;;;;13.75;13.02;;;14.00;99.90;;;;;;5114732;28;20252;-62
2023/10/09 01:35:56;;;;;;;14.30;13.70;;;14.00;99.90;;;;;;5114741;28;20210;-62
2023/10/09 01:38:31;;;;;;;14.37;13.77;;;13.90;99.90;;;;;;5114117;28;20236;-63
2023/10/09 01:41:07;;;;;;;14.03;13.43;;;13.90;99.90;;;;;;5114257;28;20210;-63
2023/10/09 01:43:34;;;;;;;13.90;13.20;;;13.80;99.90;;;;;;5113986;28;20240;-63
2023/10/09 01:46:03;;;;;;;13.00;12.40;;;13.80;99.90;;;;;;5114524;28;20210;-62
2023/10/09 01:48:32;;;;;;;13.83;13.23;;;13.80;99.90;;;;;;5113939;28;20301;-62
2023/10/09 01:51:00;;;;;;;13.60;13.00;;;13.80;99.90;;;;;;5114059;28;20217;-62
2023/10/09 01:53:33;;;;;;;13.70;13.10;;;13.80;99.90;;;;;;5114037;28;20275;-61
2023/10/09 01:56:14;;;;;;;13.63;13.02;;;13.80;99.90;;;;;;5114130;28;20206;-62
2023/10/09 01:58:42;;;;;;;13.30;12.73;;;13.80;99.90;;;;;;5113698;28;20234;-63
2023/10/09 02:01:09;;;;;;;12.70;12.13;;;13.70;99.90;;;;;;5114141;28;20240;-62
2023/10/09 02:03:38;;;;;;;13.50;12.70;;;13.70;99.90;;;;;;5113748;28;20238;-62
2023/10/09 02:06:24;;;;;;;14.33;13.63;;;13.70;99.90;;;;;;5114095;28;20202;-62
2023/10/09 02:08:53;;;;;;;14.43;13.80;;;13.70;99.90;;;;;;5113552;28;20288;-63
2023/10/09 02:11:36;;;;;;;15.10;14.33;;;13.70;99.90;;;;;;5114057;28;20206;-64
2023/10/09 02:14:15;;;;;;;14.20;13.60;;;13.60;99.90;;;;;;5113860;28;20226;-62
2023/10/09 02:16:42;;;;;;;13.60;13.00;;;13.40;99.90;;;;;;5113860;28;20278;-64
2023/10/09 02:19:28;;;;;;;13.30;12.70;;;13.60;99.90;;;;;;5113286;28;20255;-62
2023/10/09 02:21:56;;;;;;;13.80;13.20;;;13.60;99.90;;;;;;5114537;28;20399;-62
2023/10/09 02:24:42;;;;;;;13.17;12.67;;;13.60;99.90;;;;;;5113814;28;20810;-62
2023/10/09 02:27:11;;;;;;;14.00;13.40;;;13.70;99.90;;;;;;5113670;28;20208;-63
2023/10/09 02:29:41;;;;;;;14.03;13.43;;;13.70;99.90;;;;;;5118389;28;20264;-61
2023/10/09 02:32:16;;;;;;;14.23;13.63;;;13.70;99.90;;;;;;5126561;28;20202;-64
2023/10/09 02:34:46;;;;;;;14.23;13.53;;;13.70;99.90;;;;;;5127716;28;20277;-62
2023/10/09 02:37:13;;;;;;;14.87;14.13;;;13.60;99.90;;;;;;5126803;28;20369;-63
2023/10/09 02:39:47;;;;;;;14.27;13.57;;;13.70;99.90;;;;;;5126251;28;20226;-61
2023/10/09 02:42:23;;;;;;;14.33;13.63;;;13.70;99.90;;;;;;5121444;28;20226;-62
2023/10/09 02:44:51;;;;;;;14.37;13.77;;;13.70;99.90;;;;;;5128289;28;20205;-62
2023/10/09 02:47:20;;;;;;;15.10;14.37;;;13.60;99.90;;;;;;5115017;28;20876;-63
2023/10/09 02:49:49;;;;;;;15.13;14.50;;;13.60;99.90;;;;;;5114381;28;20301;-62
2023/10/09 02:52:18;;;;;;;14.73;13.93;;;13.60;99.90;;;;;;5114121;28;20210;-63
2023/10/09 02:54:47;;;;;;;14.93;14.23;;;13.60;99.90;;;;;;5114051;28;20288;-63
2023/10/09 02:57:22;;;;;;;15.27;14.47;;;13.50;99.90;;;;;;5110685;28;20218;-63
2023/10/09 02:59:51;;;;;;;14.67;14.07;;;13.50;99.90;;;;;;5113587;28;20256;-62
2023/10/09 03:02:18;;;;;;;14.43;13.73;;;13.50;99.90;;;;;;5112825;28;20237;-62
2023/10/09 03:04:46;;;;;;;15.50;14.75;;;13.50;99.90;;;;;;5113233;28;20303;-63
2023/10/09 03:07:13;;;;;;;14.80;14.10;;;13.60;99.90;;;;;;5112524;28;20201;-63
2023/10/09 03:09:40;;;;;;;14.00;13.40;;;13.60;99.90;;;;;;5109802;28;20232;-63
2023/10/09 03:12:09;;;;;;;13.57;12.93;;;13.60;99.90;;;;;;5119854;28;20211;-62
2023/10/09 03:14:39;;;;;;;14.20;13.50;;;13.60;99.90;;;;;;5114168;28;20308;-64
2023/10/09 03:17:11;;;;;;;14.10;13.40;;;13.60;99.90;;;;;;5113677;28;20234;-64
2023/10/09 03:19:38;;;;;;;14.33;13.60;;;13.60;99.90;;;;;;5112864;28;20680;-64
2023/10/09 03:22:09;;;;;;;14.87;14.07;;;13.50;99.90;;;;;;5112101;28;20212;-62
2023/10/09 03:24:36;;;;;;;14.87;14.17;;;13.50;99.90;;;;;;5112775;28;20210;-64
2023/10/09 03:27:03;;;;;;;14.43;13.73;;;13.60;99.90;;;;;;5112278;28;20214;-62
2023/10/09 03:29:30;;;;;;;14.13;13.43;;;13.60;99.90;;;;;;5112243;28;20210;-62
2023/10/09 03:32:00;;;;;;;14.80;14.00;;;13.60;99.90;;;;;;5112025;28;20613;-62
2023/10/09 03:34:27;;;;;;;13.90;13.30;;;13.60;99.90;;;;;;5113555;27;20225;-63
2023/10/09 03:37:03;;;;;;;14.53;13.83;;;13.50;99.90;;;;;;5132723;27;20247;-62
2023/10/09 03:39:34;;;;;;;14.10;13.40;;;13.50;99.90;;;;;;5132301;27;20232;-63
2023/10/09 03:42:04;;;;;;;14.17;13.37;;;13.60;99.90;;;;;;5132604;27;20208;-64
2023/10/09 03:44:33;;;;;;;13.47;12.87;;;13.60;99.90;;;;;;5132413;27;20201;-63
2023/10/09 03:47:02;;;;;;;13.47;12.87;;;13.70;99.90;;;;;;5132566;27;20208;-63
2023/10/09 03:49:30;;;;;;;13.67;12.97;;;13.60;99.90;;;;;;5132671;27;20210;-63
2023/10/09 03:51:59;;;;;;;13.63;12.93;;;13.70;99.90;;;;;;5132519;27;20593;-62
2023/10/09 03:54:29;;;;;;;13.43;12.83;;;13.70;99.90;;;;;;5132448;27;20324;-63
2023/10/09 03:56:58;;;;;;;14.07;13.33;;;13.60;99.90;;;;;;5132397;27;20217;-63
2023/10/09 03:59:32;;;;;;;13.73;13.00;;;13.70;99.90;;;;;;5132141;27;20232;-63
2023/10/09 04:01:58;;;;;;;13.40;12.73;;;13.70;99.90;;;;;;5132132;27;20236;-63
2023/10/09 04:04:28;;;;;;;13.60;13.10;;;13.70;99.90;;;;;;5132166;27;20229;-63
2023/10/09 04:06:55;;;;;;;13.77;13.17;;;13.70;99.90;;;;;;5134170;27;20299;-63
2023/10/09 04:09:35;;;;;;;13.33;12.73;;;13.70;99.90;;;;;;5136787;27;20208;-64
2023/10/09 04:14:57;;;;;;;12.93;12.38;;;13.70;99.90;;;;;;5106729;27;20197;-63
2023/10/09 04:17:34;;;;;;;14.30;13.60;;;13.80;99.90;;;;;;5131553;27;20631;-63
2023/10/09 04:23:04;;;;;;;13.37;12.70;;;13.80;99.90;;;;;;5131887;27;20228;-63
2023/10/09 04:25:41;;;;;;;13.43;12.73;;;13.80;99.90;;;;;;5131930;27;20236;-64
2023/10/09 04:28:09;;;;;;;13.43;12.53;;;13.80;99.90;;;;;;5131297;27;20239;-63
2023/10/09 04:30:40;;;;;;;12.77;12.27;;;13.90;99.90;;;;;;5126773;27;20257;-63
2023/10/09 04:33:27;;;;;;;13.03;12.33;;;13.90;99.90;;;;;;5128034;27;20232;-63
2023/10/09 04:38:38;;;;;;;12.40;11.87;;;13.90;99.90;;;;;;5109170;27;20622;-63
2023/10/09 04:41:07;;;;;;;12.37;11.77;;;13.90;99.90;;;;;;5101314;28;20547;-62
2023/10/09 04:43:33;;;;;;;12.88;12.27;;;13.90;99.90;;;;;;5119865;27;20257;-64
2023/10/09 04:46:12;;;;;;;13.75;13.15;;;13.90;99.90;;;;;;5124398;27;20233;-62
2023/10/09 04:48:45;;;;;;;12.70;12.10;;;14.00;99.90;;;;;;5134065;27;20201;-62
2023/10/09 04:51:21;;;;;;;13.52;12.93;;;13.90;99.90;;;;;;5129005;27;20206;-63
2023/10/09 04:54:00;;;;;;;13.40;12.80;;;13.90;99.90;;;;;;5096765;28;20653;-63
2023/10/09 04:56:31;;;;;;;12.43;11.93;;;13.90;99.90;;;;;;5131718;28;20224;-63
2023/10/09 04:59:03;;;;;;;12.95;12.35;;;13.90;99.90;;;;;;5126435;28;20214;-63
2023/10/09 05:01:41;;;;;;;13.55;12.95;;;14.00;99.90;;;;;;5131348;27;20244;-63
2023/10/09 05:04:27;;;;;;;12.80;12.20;;;13.90;99.90;;;;;;5131746;28;20235;-63
2023/10/09 05:06:55;;;;;;;13.67;13.07;;;14.00;99.90;;;;;;5131654;28;20561;-63
2023/10/09 05:09:22;;;;;;;13.30;12.70;;;13.90;99.90;;;;;;5132943;28;20218;-62
2023/10/09 05:12:09;;;;;;;13.03;12.43;;;14.00;99.90;;;;;;5128605;28;20274;-62
2023/10/09 05:14:45;;;;;;;13.03;12.53;;;14.00;99.90;;;;;;5125747;28;20253;-63
2023/10/09 05:17:16;;;;;;;13.00;12.40;;;14.10;99.90;;;;;;5120683;28;20197;-63
2023/10/09 05:19:54;;;;;;;13.33;12.70;;;14.10;99.90;;;;;;5144515;28;20277;-69
2023/10/09 05:22:37;;;;;;;13.73;13.03;;;14.10;99.90;;;;;;5140855;28;20583;-69
2023/10/09 05:25:15;;;;;;;13.57;12.90;;;14.10;99.90;;;;;;5137033;28;20219;-68
2023/10/09 05:27:45;;;;;;;13.23;12.63;;;14.20;99.90;;;;;;5138376;28;20235;-69
2023/10/09 05:30:33;;;;;;;14.45;13.48;;;14.20;99.90;;;;;;5149494;28;20230;-67
2023/10/09 05:33:04;;;;;;;13.75;12.95;;;14.20;99.90;;;;;;5137796;28;20329;-68
2023/10/09 05:35:39;;;;;;;12.43;11.93;;;14.20;99.90;;;;;;5129147;28;20232;-68
2023/10/09 05:38:23;;;;;;;13.83;13.10;;;14.20;99.90;;;;;;5129855;28;20209;-66
2023/10/09 05:40:53;;;;;;;12.60;12.00;;;14.20;99.90;;;;;;5117939;28;20233;-68
2023/10/09 05:46:09;;;;;;;12.53;12.00;;;14.30;99.90;;;;;;5129526;27;20198;-67
2023/10/09 05:54:23;;;;;;;12.43;11.93;;;14.30;99.90;;;;;;5134169;27;20249;-70
2023/10/09 06:05:40;;;;;;;13.23;12.73;;;14.30;99.90;;;;;;5134795;27;20216;-68
2023/10/09 06:08:04;;;;;;;13.23;12.63;;;14.20;99.90;;;;;;5124954;27;20205;-71
2023/10/09 06:10:40;;;;;;;13.45;12.88;;;14.30;99.90;;;;;;5128493;27;20228;-69
2023/10/09 06:13:30;;;;;;;12.50;11.90;;;14.30;99.90;;;;;;5134273;27;20570;-69
2023/10/09 06:16:19;;;;;;;13.50;12.90;;;14.40;99.90;;;;;;5126619;27;20205;-69
2023/10/09 06:18:53;;;;;;;13.37;12.87;;;14.30;99.90;;;;;;5118341;27;20732;-69
2023/10/09 06:24:14;;;;;;;13.70;13.20;;;14.40;99.90;;;;;;5113219;27;20289;-68
2023/10/09 06:26:51;;;;;;;13.30;12.70;;;14.40;99.90;;;;;;5113626;27;20675;-68
2023/10/09 06:29:33;;;;;;;13.30;12.70;;;14.40;99.90;;;;;;5104001;28;20210;-69
2023/10/09 06:32:16;;;;;;;13.53;12.93;;;14.40;99.90;;;;;;5117976;27;20668;-68
2023/10/09 06:34:46;;;;;;;13.33;12.73;;;14.40;99.90;;;;;;5112921;27;20647;-68
2023/10/09 06:37:19;;;;;;;13.23;12.63;;;14.40;99.90;;;;;;5112125;27;20591;-68
2023/10/09 06:40:22;;;;;;;13.20;12.60;;;14.50;99.90;;;;;;5115028;27;20699;-68
2023/10/09 06:42:44;;;;;;;14.07;13.37;;;14.50;99.90;;;;;;5126903;27;20574;-68
2023/10/09 06:45:16;;;;;;;13.47;12.97;;;14.50;99.90;;;;;;5119123;27;20206;-67
2023/10/09 06:47:53;;;;;;;13.80;13.20;;;14.60;99.90;;;;;;5109145;27;20214;-68
2023/10/09 06:50:55;;;;;;;15.83;15.13;;;14.50;99.90;;;;;;5114718;27;20238;-69
2023/10/09 06:53:25;;;;;;;13.53;12.93;;;14.60;99.90;;;;;;5126210;27;20230;-67
2023/10/09 06:55:52;;;;;;;13.70;13.10;;;14.60;99.90;;;;;;5117202;27;20205;-68
2023/10/09 06:58:23;;;;;;;14.30;13.53;;;14.60;99.90;;;;;;5109283;27;20302;-69
2023/10/09 07:01:19;;;;;;;13.73;13.13;;;14.70;99.90;;;;;;5105214;28;20222;-68
2023/10/09 07:03:51;;;;;;;13.90;13.30;;;14.70;99.90;;;;;;5105440;28;20248;-67
2023/10/09 07:06:48;;;;;;;13.80;13.10;;;14.70;99.90;;;;;;5118696;27;20282;-68
2023/10/09 07:09:19;;;;;;;14.40;13.60;;;14.70;99.90;;;;;;5113620;27;20207;-67
2023/10/09 07:12:03;;;;;;;26.70;25.50;;;14.80;99.90;;;;;;5114377;27;20198;-68
2023/10/09 07:17:21;;;;;;;14.23;13.53;;;14.80;99.90;;;;;;5112700;27;20208;-68
2023/10/09 07:20:09;;;;;;;14.00;13.40;;;14.80;99.90;;;;;;5111177;27;20320;-67
2023/10/09 07:22:52;;;;;;;13.70;13.10;;;14.90;99.90;;;;;;5107891;27;20305;-68
2023/10/09 07:25:40;;;;;;;14.60;14.00;;;14.90;99.90;;;;;;5111738;27;20221;-68
2023/10/09 07:28:28;;;;;;;14.20;13.60;;;15.00;99.90;;;;;;5116639;27;20216;-68
2023/10/09 07:31:01;;;;;;;14.30;13.70;;;15.00;99.90;;;;;;5114072;27;20525;-67
2023/10/09 07:33:50;;;;;;;15.20;14.60;;;15.10;99.90;;;;;;5112277;27;20332;-69
2023/10/09 07:36:29;;;;;;;15.17;14.47;;;15.10;99.90;;;;;;5103663;28;20211;-68
2023/10/09 07:38:59;;;;;;;15.33;14.73;;;15.10;99.90;;;;;;5122199;27;20292;-69
2023/10/09 07:41:39;;;;;;;15.37;14.70;;;15.10;99.90;;;;;;5123998;27;20233;-68
2023/10/09 07:44:36;;;;;;;15.50;14.80;;;15.20;99.90;;;;;;5112235;27;20244;-68
2023/10/09 07:47:18;;;;;;;14.83;14.13;;;15.30;99.90;;;;;;5116594;27;20596;-68
2023/10/09 07:49:51;;;;;;;14.83;14.23;;;15.40;99.90;;;;;;5107308;28;20214;-69
2023/10/09 07:52:21;;;;;;;14.67;14.00;;;15.60;99.90;;;;;;5120712;27;20197;-68
2023/10/09 07:55:01;;;;;;;16.03;15.33;;;15.80;99.90;;;;;;5106285;28;20672;-67
2023/10/09 07:57:28;;;;;;;14.20;13.60;;;16.00;99.90;;;;;;5102842;28;20677;-68
2023/10/09 08:00:00;;;;;;;15.10;14.40;;;16.20;99.90;;;;;;5113978;27;20209;-69
2023/10/09 08:02:36;;;;;;;14.00;13.37;;;16.40;99.90;;;;;;5110678;27;20299;-67
2023/10/09 08:05:06;;;;;;;14.27;13.77;;;16.60;99.90;;;;;;5112910;27;20219;-68
2023/10/09 08:07:34;;;;;;;14.67;14.07;;;16.80;99.90;;;;;;5103209;28;20255;-68
2023/10/09 08:12:58;;;;;;;14.30;13.70;;;17.20;99.90;;;;;;5112359;27;20572;-70
2023/10/09 08:15:34;;;;;;;15.47;14.70;;;17.30;99.90;;;;;;5114220;27;20202;-68
2023/10/09 08:18:09;;;;;;;14.40;13.80;;;17.50;99.90;;;;;;5105123;28;20206;-67
2023/10/09 08:21:19;;;;;;;16.03;15.27;;;17.60;99.90;;;;;;5122012;27;20276;-67
2023/10/09 08:23:28;;;;;;;14.77;14.07;;;17.70;99.90;;;;;;5109543;27;20352;-67
2023/10/09 08:26:12;;;;;;;14.93;14.32;;;17.80;99.90;;;;;;5119393;27;20206;-69
2023/10/09 08:28:39;;;;;;;17.00;16.27;;;17.80;99.90;;;;;;5121992;27;20227;-68
2023/10/09 08:31:19;;;;;;;15.10;14.32;;;18.00;99.90;;;;;;5124267;27;20734;-69
2023/10/09 08:33:56;;;;;;;15.15;14.55;;;18.00;99.90;;;;;;5115872;27;20225;-69
2023/10/09 08:36:28;;;;;;;15.13;14.43;;;18.10;99.90;;;;;;5111430;27;20210;-69
2023/10/09 08:38:58;;;;;;;14.18;13.48;;;18.10;99.90;;;;;;5114917;27;20308;-69
2023/10/09 08:41:29;;;;;;;13.75;13.20;;;18.30;99.90;;;;;;5119120;27;20278;-70
2023/10/09 08:43:57;;;;;;;16.07;15.33;;;18.40;99.90;;;;;;5117235;27;20233;-69
2023/10/09 08:46:26;;;;;;;14.37;13.77;;;18.50;99.90;;;;;;5103511;28;20202;-68
2023/10/09 08:48:56;;;;;;;14.43;13.82;;;18.60;99.90;;;;;;5112256;27;20222;-68
2023/10/09 08:51:25;;;;;;;15.15;14.55;;;18.70;99.90;;;;;;5123611;27;20196;-68
2023/10/09 08:53:52;;;;;;;14.50;13.87;;;18.80;99.90;;;;;;5107683;28;20246;-68
2023/10/09 08:56:22;;;;;;;14.88;14.23;;;18.90;99.90;;;;;;5118876;28;20232;-68
2023/10/09 08:58:51;;;;;;;15.13;14.47;;;19.10;99.90;;;;;;5125215;28;20205;-69
2023/10/09 09:01:21;;;;;;;15.37;14.77;;;19.10;99.90;;;;;;5120052;27;20238;-67
2023/10/09 09:03:48;;;;;;;16.60;15.80;;;19.20;99.90;;;;;;5113440;28;20234;-68
2023/10/09 09:06:19;;;;;;;16.23;15.63;;;19.30;99.90;;;;;;5126316;28;20219;-69
2023/10/09 09:08:46;;;;;;;15.77;15.02;;;19.30;99.90;;;;;;5113929;28;20234;-69
2023/10/09 09:11:17;;;;;;;15.98;15.27;;;19.30;99.90;;;;;;5111845;28;20297;-69
2023/10/09 09:13:49;;;;;;;15.70;15.10;;;19.40;99.90;;;;;;5120455;28;20238;-69
2023/10/09 09:16:17;;;;;;;16.60;15.67;;;19.60;99.90;;;;;;5112017;28;20224;-69
2023/10/09 09:18:56;;;;;;;16.77;16.07;;;19.90;99.90;;;;;;5110588;27;20656;-67
2023/10/09 09:21:24;;;;;;;16.53;15.83;;;20.20;99.90;;;;;;5115968;27;20612;-69
2023/10/09 09:24:00;;;;;;;15.73;15.13;;;20.50;99.90;;;;;;5114749;27;20222;-69
2023/10/09 09:26:58;;;;;;;15.85;15.05;;;20.80;99.90;;;;;;5120018;27;20212;-68
2023/10/09 09:29:38;;;;;;;15.80;15.20;;;21.00;99.90;;;;;;5107590;27;20676;-68
2023/10/09 09:32:15;;;;;;;17.13;16.33;;;21.30;99.90;;;;;;5116651;27;20206;-69
2023/10/09 09:34:46;;;;;;;15.90;15.30;;;21.40;99.90;;;;;;5109073;27;20682;-69
2023/10/09 09:37:20;;;;;;;15.02;14.43;;;21.60;99.90;;;;;;5120461;27;20263;-69
2023/10/09 09:39:51;;;;;;;16.20;15.50;;;21.70;99.90;;;;;;5102278;28;20226;-69
2023/10/09 09:42:24;;;;;;;16.55;15.85;;;21.80;99.90;;;;;;5116264;27;20309;-69
2023/10/09 09:44:52;;;;;;;16.67;15.98;;;21.90;99.90;;;;;;5115907;27;20234;-68
2023/10/09 09:47:23;;;;;;;15.68;15.00;;;22.00;99.90;;;;;;5111216;27;20766;-69
2023/10/09 09:49:52;;;;;;;16.38;15.68;;;22.30;99.90;;;;;;5106911;28;20711;-69
2023/10/09 09:52:24;;;;;;;17.10;16.40;;;22.50;99.90;;;;;;5113069;27;20237;-68
2023/10/09 09:54:51;;;;;;;15.57;14.98;;;22.50;99.90;;;;;;5107096;28;20703;-69
2023/10/09 09:57:25;;;;;;;16.25;15.65;;;22.50;99.90;;;;;;5112641;27;20728;-69
2023/10/09 09:59:55;;;;;;;17.40;16.70;;;22.50;99.90;;;;;;5107246;28;20209;-69
2023/10/09 10:02:28;;;;;;;17.02;16.33;;;22.60;99.90;;;;;;5116647;27;20224;-68
2023/10/09 10:04:59;;;;;;;18.40;17.65;;;22.50;99.90;;;;;;5106786;28;20228;-68
2023/10/09 10:07:31;;;;;;;19.17;18.38;;;22.50;99.90;;;;;;5116967;27;20282;-69
2023/10/09 10:09:58;;;;;;;16.95;16.20;;;22.50;99.90;;;;;;5115032;27;20217;-70
2023/10/09 10:13:00;;;;;;;18.45;17.75;;;22.70;99.90;;;;;;5105728;28;20291;-69
2023/10/09 10:16:02;;;;;;;17.15;16.55;;;22.60;99.90;;;;;;5111716;28;20285;-69
2023/10/09 10:18:35;;;;;;;20.33;19.43;;;22.70;99.90;;;;;;5106733;28;20201;-67
2023/10/09 10:21:33;;;;;;;18.23;17.42;;;22.90;99.90;;;;;;5117406;27;20230;-68
2023/10/09 10:24:05;;;;;;;18.98;18.17;;;23.00;99.90;;;;;;5120422;27;20234;-68
2023/10/09 10:26:34;;;;;;;18.77;17.88;;;23.10;99.90;;;;;;5113752;27;20206;-70
2023/10/09 10:29:26;;;;;;;19.10;18.20;;;23.10;99.90;;;;;;5104136;28;20263;-70
2023/10/09 10:31:55;;;;;;;19.25;18.45;;;23.10;99.90;;;;;;5108625;28;20201;-69
2023/10/09 10:34:24;;;;;;;19.08;18.27;;;23.10;99.90;;;;;;5113496;27;20236;-69
2023/10/09 10:36:58;;;;;;;19.95;19.15;;;23.10;99.90;;;;;;5106780;28;20210;-69
2023/10/09 10:45:34;;;;;;;17.40;16.70;;;23.30;99.90;;;;;;5150223;27;20894;-69
2023/10/09 10:48:06;;;;;;;18.65;17.75;;;23.50;99.90;;;;;;5147013;27;20203;-69
2023/10/09 10:50:36;;;;;;;17.73;17.02;;;23.60;99.90;;;;;;5152194;27;20300;-70
2023/10/09 10:53:14;;;;;;;18.75;17.95;;;23.70;99.90;;;;;;5145886;27;20221;-69
2023/10/09 10:55:56;;;;;;;17.70;17.00;;;23.80;99.90;;;;;;5129746;28;20197;-69
2023/10/09 10:58:35;;;;;;;18.60;17.80;;;23.70;99.90;;;;;;5129379;28;20254;-69
2023/10/09 11:01:11;;;;;;;18.40;17.40;;;23.80;99.90;;;;;;5129634;28;20220;-68
2023/10/09 11:03:54;;;;;;;19.75;19.05;;;23.60;99.90;;;;;;5129230;27;20236;-69
2023/10/09 11:06:35;;;;;;;18.95;18.25;;;23.60;99.90;;;;;;5129004;28;20209;-69
2023/10/09 11:09:09;;;;;;;19.35;18.55;;;23.70;99.90;;;;;;5126659;28;20205;-69
2023/10/09 11:11:41;;;;;;;16.92;16.33;;;23.70;99.90;;;;;;5129159;28;20204;-69
2023/10/09 11:14:14;;;;;;;18.00;17.30;;;23.70;99.90;;;;;;5128812;27;20224;-69
2023/10/09 11:16:42;;;;;;;16.48;15.82;;;23.80;99.90;;;;;;5128789;28;20213;-69
2023/10/09 11:19:22;;;;;;;17.52;16.73;;;23.80;99.90;;;;;;5128844;27;20213;-69
2023/10/09 11:21:58;;;;;;;17.07;16.27;;;23.90;99.90;;;;;;5124106;28;20254;-69
2023/10/09 11:24:27;;;;;;;17.02;16.33;;;23.90;99.90;;;;;;5125240;28;20312;-69
2023/10/09 11:26:55;;;;;;;17.50;16.77;;;23.90;99.90;;;;;;5128815;28;20194;-70
2023/10/09 11:29:52;;;;;;;17.58;16.88;;;24.00;99.90;;;;;;5128779;28;20582;-68
2023/10/09 11:32:22;;;;;;;16.90;16.20;;;24.00;99.90;;;;;;5128662;27;20221;-68
2023/10/09 11:34:52;;;;;;;16.00;15.30;;;23.90;99.90;;;;;;5128866;27;20205;-68
2023/10/09 11:37:38;;;;;;;17.02;16.33;;;23.90;99.90;;;;;;5130907;27;20273;-68
2023/10/09 11:40:22;;;;;;;15.52;14.82;;;24.00;99.90;;;;;;5126124;28;20220;-69
2023/10/09 11:42:49;;;;;;;16.30;15.60;;;24.00;99.90;;;;;;5128503;27;20640;-70
2023/10/09 11:45:24;;;;;;;16.48;15.77;;;24.00;99.90;;;;;;5128349;28;20232;-69
2023/10/09 11:47:59;;;;;;;17.55;16.85;;;24.00;99.90;;;;;;5123669;28;20201;-69
2023/10/09 11:50:54;;;;;;;19.35;18.45;;;24.00;99.90;;;;;;5128228;28;20209;-69
2023/10/09 11:53:33;;;;;;;24.95;23.85;;;24.00;99.90;;;;;;5105140;27;20222;-69
2023/10/09 11:56:00;;;;;;;25.08;23.88;;;24.00;99.90;;;;;;5114233;28;20631;-69
2023/10/09 11:58:27;;;;;;;23.42;22.42;;;24.00;99.90;;;;;;5114476;28;20283;-69
2023/10/09 12:00:59;;;;;;;20.55;19.63;;;24.00;99.90;;;;;;5114259;28;20304;-68
2023/10/09 12:03:30;;;;;;;18.80;18.00;;;24.00;99.90;;;;;;5111197;28;20272;-70
2023/10/09 12:05:58;;;;;;;19.50;18.70;;;24.00;99.90;;;;;;5114369;28;20637;-69
2023/10/09 12:08:27;;;;;;;19.02;18.23;;;24.10;99.90;;;;;;5110515;28;20212;-69
2023/10/09 12:10:55;;;;;;;18.75;18.05;;;24.20;99.90;;;;;;5114584;28;20206;-69
2023/10/09 12:13:23;;;;;;;18.65;17.75;;;24.20;99.90;;;;;;5114448;28;20230;-68
2023/10/09 12:15:52;;;;;;;18.45;17.67;;;24.20;99.90;;;;;;5109347;28;20672;-68
2023/10/09 12:18:21;;;;;;;18.03;17.33;;;24.30;99.90;;;;;;5114039;28;20205;-69
2023/10/09 12:20:55;;;;;;;17.83;17.13;;;24.30;99.90;;;;;;5114083;28;20202;-69
2023/10/09 12:23:27;;;;;;;17.85;17.15;;;24.40;99.90;;;;;;5113970;28;20245;-69
2023/10/09 12:25:56;;;;;;;17.85;17.05;;;24.40;99.90;;;;;;5114216;28;20206;-69
2023/10/09 12:28:23;;;;;;;16.45;15.85;;;24.40;99.90;;;;;;5113767;28;20206;-69
2023/10/09 12:30:51;;;;;;;17.27;16.58;;;24.30;99.90;;;;;;5109230;28;20579;-68
2023/10/09 12:33:19;;;;;;;17.98;17.27;;;24.20;99.90;;;;;;5113762;28;20217;-69
2023/10/09 12:35:47;;;;;;;16.92;16.23;;;24.20;99.90;;;;;;5113650;28;20221;-69
2023/10/09 12:38:18;;;;;;;17.10;16.40;;;24.20;99.90;;;;;;5113806;28;20284;-68
2023/10/09 12:40:50;;;;;;;17.65;16.85;;;24.20;99.90;;;;;;5114074;28;20259;-69
2023/10/09 12:43:19;;;;;;;17.33;16.63;;;24.20;99.90;;;;;;5113324;28;20244;-70
2023/10/09 12:45:46;;;;;;;17.60;16.70;;;24.40;99.90;;;;;;5113872;28;20214;-68
2023/10/09 12:48:14;;;;;;;17.88;17.17;;;24.50;99.90;;;;;;5113128;28;20208;-69
2023/10/09 12:50:44;;;;;;;18.52;17.73;;;24.60;99.90;;;;;;5113506;28;20691;-68
2023/10/09 12:53:17;;;;;;;18.40;17.70;;;24.60;99.90;;;;;;5113522;28;20226;-68
2023/10/09 12:55:45;;;;;;;18.38;17.58;;;24.70;99.90;;;;;;5114567;28;20242;-70
2023/10/09 12:58:15;;;;;;;17.42;16.70;;;24.80;99.90;;;;;;5113285;28;20288;-70
2023/10/09 13:00:48;;;;;;;17.58;16.77;;;25.00;99.90;;;;;;5113716;28;20210;-68
2023/10/09 13:03:19;;;;;;;18.45;17.65;;;25.10;99.90;;;;;;5113679;28;20228;-69
2023/10/09 13:05:53;;;;;;;18.92;18.02;;;25.20;99.90;;;;;;5113687;28;20282;-68
2023/10/09 13:08:23;;;;;;;18.77;17.98;;;25.30;99.90;;;;;;5112625;28;20392;-68
2023/10/09 13:10:59;;;;;;;19.77;18.98;;;25.40;99.90;;;;;;5108980;28;20202;-68
2023/10/09 13:13:39;;;;;;;18.50;17.60;;;25.40;99.90;;;;;;5110187;28;20227;-70
2023/10/09 13:16:07;;;;;;;19.08;18.17;;;25.50;99.90;;;;;;5113936;28;20209;-70
2023/10/09 13:18:34;;;;;;;16.88;16.17;;;25.60;99.90;;;;;;5113322;28;20229;-69
2023/10/09 13:21:03;;;;;;;18.17;17.48;;;25.70;99.90;;;;;;5117971;28;20202;-69
2023/10/09 13:23:38;;;;;;;16.50;15.80;;;25.80;99.90;;;;;;5112828;28;20249;-70
2023/10/09 13:26:17;;;;;;;15.50;14.80;;;25.80;99.90;;;;;;5113034;28;20247;-70
2023/10/09 13:28:48;;;;;;;15.63;14.93;;;25.90;99.90;;;;;;5113038;28;20209;-69
2023/10/09 13:31:15;;;;;;;15.02;14.32;;;25.80;99.90;;;;;;5113143;28;20289;-68
2023/10/09 13:33:42;;;;;;;16.10;15.40;;;25.90;99.90;;;;;;5112874;28;20351;-68
2023/10/09 13:36:17;;;;;;;15.10;14.40;;;26.00;99.90;;;;;;5112766;28;20206;-68
2023/10/09 13:38:44;;;;;;;15.90;15.10;;;26.00;99.90;;;;;;5112723;28;20210;-69
2023/10/09 13:41:15;;;;;;;15.15;14.55;;;26.10;99.90;;;;;;5112700;28;20262;-69